Airport ID:KCCB
Update Time (UTC):19/03/2019 08:19
Wind Speed (Knots):5
Wind Direction (Magnetic):50
Temperature (°C):15.6
Dew Point (°C):4.5
Humidity (%):49.2
Altimeter (inHg):29.97
Density Altitude (Feet):
Visibility (Miles):10
Clouds (Hundreds of feet):CLR
Present Weather:
METAR:METAR KCCB 190815Z AUTO 07005KT 10SM CLR 16/04 A2997 RMK AO2

The data displayed is for advisory purposes only and is not to be used for flight planning or operations.

This page is not automatically refreshed. Reload the page to see current data.